In Rescue
 
Open Full Screen Window  High Contrast Mode
Wind Gusting 00 knots
05
July 24, 2024 4:06 PM CDT
Weather Information
Wind Direction
  100 °
Wind Speed
  05 kt (6 mph)
Wind Gust
  00 kt (0 mph)
Altimeter
30.22 in
Visibility
10 SM
Temperature
24° C
75° F
Dewpoint
11° C
52° F
Humidity
44%
1hr Rain Fall
00.00 in.
24hr Rain Fall
00.04 in.
Sky Condition
Clear
VFR

METAR KHZX 242106Z AUTO 10005KT 10SM CLR 24/11 A3022 RMK AO2

FAA Disclaimer: The data displayed is for advisory purposes only and is not to be used for flight planning or operations.